createdAt,value
2022-12-01T00:01:22.375Z,49.70
2022-12-01T00:04:26.621Z,47.81
2022-12-01T00:07:31.163Z,48.77
2022-12-01T00:10:36.745Z,49.99
2022-12-01T00:13:41.046Z,49.16
2022-12-01T00:16:45.815Z,48.19
2022-12-01T00:19:50.607Z,48.81
2022-12-01T00:22:55.507Z,46.89
2022-12-01T00:26:08.789Z,43.51
2022-12-01T00:29:13.494Z,45.41
2022-12-01T00:32:17.904Z,45.15
2022-12-01T00:35:22.736Z,43.50
2022-12-01T00:38:27.746Z,42.23
2022-12-01T00:41:32.339Z,45.02
2022-12-01T00:44:37.113Z,41.43
2022-12-01T00:47:41.617Z,39.80
2022-12-01T00:50:46.888Z,41.41
2022-12-01T00:53:51.493Z,40.16
2022-12-01T00:56:55.767Z,40.32
2022-12-01T01:00:00.229Z,40.30
2022-12-01T01:03:04.792Z,41.01
2022-12-01T01:06:11.996Z,41.45
2022-12-01T01:09:17.206Z,42.76
2022-12-01T01:12:21.523Z,44.86
2022-12-01T01:15:25.741Z,42.71
2022-12-01T01:18:30.591Z,41.93
2022-12-01T01:21:35.029Z,42.81
2022-12-01T01:24:39.818Z,42.01
2022-12-01T01:27:44.350Z,39.80
2022-12-01T01:30:48.895Z,43.02
2022-12-01T01:33:53.808Z,42.71
2022-12-01T01:36:58.142Z,42.49
2022-12-01T01:40:02.524Z,43.56
2022-12-01T01:43:19.738Z,44.88
2022-12-01T01:46:30.660Z,44.23
2022-12-01T01:49:35.426Z,42.22
2022-12-01T01:52:46.213Z,42.92
2022-12-01T01:55:51.117Z,43.83
2022-12-01T01:58:56.118Z,43.78
2022-12-01T02:02:09.404Z,44.54
2022-12-01T02:05:24.699Z,44.38
2022-12-01T02:08:28.997Z,44.44
2022-12-01T02:11:51.224Z,43.83
2022-12-01T02:15:12.015Z,44.69
2022-12-01T02:18:40.629Z,42.82
2022-12-01T02:22:19.767Z,42.55
2022-12-01T02:26:01.033Z,44.36
2022-12-01T02:29:19.868Z,44.71
2022-12-01T02:32:39.193Z,42.29
2022-12-01T02:36:12.904Z,42.73
2022-12-01T02:39:29.512Z,42.16
2022-12-01T02:42:54.172Z,41.70
2022-12-01T02:46:34.103Z,42.89
2022-12-01T02:49:45.904Z,42.28
2022-12-01T02:52:51.286Z,41.93
2022-12-01T02:55:59.329Z,41.55
2022-12-01T02:59:06.524Z,41.43
2022-12-01T03:02:13.597Z,40.54
2022-12-01T03:05:52.261Z,42.38
2022-12-01T03:09:24.223Z,43.41
2022-12-01T03:12:28.766Z,41.61
2022-12-01T03:15:36.644Z,41.05
2022-12-01T03:18:50.287Z,41.69
2022-12-01T03:22:06.712Z,41.19
2022-12-01T03:25:14.092Z,40.78
2022-12-01T03:28:22.998Z,41.25
2022-12-01T03:31:34.864Z,41.22
2022-12-01T03:35:12.466Z,41.96
2022-12-01T03:38:26.223Z,40.71
2022-12-01T03:41:38.699Z,39.46
2022-12-01T03:44:49.824Z,39.67
2022-12-01T03:47:54.578Z,40.14
2022-12-01T03:51:19.571Z,40.30
2022-12-01T03:55:12.776Z,40.83
2022-12-01T03:58:29.934Z,41.68
2022-12-01T04:01:38.121Z,41.69
2022-12-01T04:04:42.492Z,42.14
2022-12-01T04:07:47.160Z,42.43
2022-12-01T04:10:51.445Z,41.50
2022-12-01T04:13:56.122Z,41.20
2022-12-01T04:17:00.304Z,40.98
2022-12-01T04:20:07.457Z,42.62
2022-12-01T04:23:11.649Z,41.97
2022-12-01T04:26:16.361Z,42.81
2022-12-01T04:29:21.140Z,42.12
2022-12-01T04:32:25.718Z,43.01
2022-12-01T04:35:30.301Z,41.38
2022-12-01T04:38:34.985Z,41.23
2022-12-01T04:41:39.322Z,42.57
2022-12-01T04:44:43.747Z,40.73
2022-12-01T04:47:48.221Z,41.93
2022-12-01T04:50:52.777Z,42.64
2022-12-01T04:53:56.974Z,42.37
2022-12-01T04:57:01.448Z,43.34
2022-12-01T05:00:13.812Z,43.48
2022-12-01T05:03:18.509Z,44.18
2022-12-01T05:06:25.842Z,44.03
2022-12-01T05:09:30.595Z,44.44
2022-12-01T05:12:35.299Z,43.71
2022-12-01T05:15:39.893Z,43.21
2022-12-01T05:18:44.822Z,43.09
2022-12-01T05:21:51.408Z,44.71
2022-12-01T05:24:55.877Z,44.63
2022-12-01T05:28:00.513Z,43.83
2022-12-01T05:31:05.091Z,44.46
2022-12-01T05:34:10.181Z,44.64
2022-12-01T05:37:14.693Z,44.50
2022-12-01T05:40:19.382Z,43.52
2022-12-01T05:43:29.144Z,44.19
2022-12-01T05:46:34.306Z,43.66
2022-12-01T05:49:38.771Z,44.32
2022-12-01T05:52:43.374Z,44.75
2022-12-01T05:55:47.851Z,43.83
2022-12-01T05:58:52.335Z,44.70
2022-12-01T06:01:56.810Z,44.70
2022-12-01T06:05:04.149Z,43.65
2022-12-01T06:08:09.121Z,43.72
2022-12-01T06:11:13.840Z,44.39
2022-12-01T06:14:18.230Z,44.86
2022-12-01T06:17:22.635Z,44.26
2022-12-01T06:20:27.828Z,44.88
2022-12-01T06:23:32.400Z,44.67
2022-12-01T06:26:37.047Z,44.91
2022-12-01T06:29:42.359Z,44.84
2022-12-01T06:32:46.732Z,44.68
2022-12-01T06:35:58.094Z,45.28
2022-12-01T06:39:02.295Z,44.50
2022-12-01T06:42:07.475Z,45.51
2022-12-01T06:45:12.622Z,45.78
2022-12-01T06:48:17.490Z,46.10
2022-12-01T06:51:22.985Z,46.44
2022-12-01T06:54:27.792Z,46.17
2022-12-01T06:57:33.208Z,46.05
2022-12-01T07:00:38.443Z,46.97
2022-12-01T07:03:43.857Z,46.68
2022-12-01T07:06:47.775Z,45.85
2022-12-01T07:09:52.572Z,46.26
2022-12-01T07:12:59.832Z,46.26
2022-12-01T07:16:05.552Z,46.64
2022-12-01T07:19:10.017Z,46.28
2022-12-01T07:22:14.575Z,46.14
2022-12-01T07:25:19.158Z,46.67
2022-12-01T07:28:23.859Z,46.76
2022-12-01T07:31:28.279Z,46.50
2022-12-01T07:34:33.124Z,46.52
2022-12-01T07:37:37.386Z,45.70
2022-12-01T07:40:42.162Z,45.13
2022-12-01T07:43:46.774Z,45.56
2022-12-01T07:46:51.362Z,45.29
2022-12-01T07:49:56.500Z,44.57
2022-12-01T07:53:01.138Z,44.71
2022-12-01T07:56:08.744Z,44.86
2022-12-01T07:59:13.532Z,44.76
2022-12-01T08:02:17.979Z,44.87
2022-12-01T08:05:22.714Z,44.35
2022-12-01T08:08:27.786Z,44.20
2022-12-01T08:11:32.500Z,44.24
2022-12-01T08:14:38.122Z,45.18
2022-12-01T08:17:42.843Z,45.38
2022-12-01T08:20:47.347Z,46.20
2022-12-01T08:23:59.016Z,49.26
2022-12-01T08:27:03.776Z,50.26
2022-12-01T08:30:09.025Z,50.43
2022-12-01T08:33:13.045Z,49.81
2022-12-01T08:36:18.631Z,49.17
2022-12-01T08:39:23.130Z,50.27
2022-12-01T08:42:27.756Z,50.21
2022-12-01T08:45:32.820Z,49.80
2022-12-01T08:48:37.103Z,48.60
2022-12-01T08:51:41.776Z,48.49
2022-12-01T08:54:46.157Z,48.51
2022-12-01T08:57:51.052Z,50.21
2022-12-01T09:00:55.307Z,49.89
2022-12-01T09:04:09.113Z,50.13
2022-12-01T09:07:17.305Z,50.24
2022-12-01T09:10:23.683Z,49.82
2022-12-01T09:13:29.451Z,49.96
2022-12-01T09:16:35.233Z,50.64
2022-12-01T09:19:39.630Z,51.63
2022-12-01T09:22:44.001Z,51.90
2022-12-01T09:25:48.505Z,53.00
2022-12-01T09:28:59.091Z,51.94
2022-12-01T09:32:03.369Z,52.79
2022-12-01T09:35:08.079Z,51.94
2022-12-01T09:38:12.493Z,51.97
2022-12-01T09:41:22.732Z,51.80
2022-12-01T09:44:39.662Z,52.45
2022-12-01T09:47:47.493Z,54.16
2022-12-01T09:50:51.857Z,52.12
2022-12-01T09:53:59.511Z,50.49
2022-12-01T09:57:04.814Z,50.63
2022-12-01T10:00:15.833Z,52.40
2022-12-01T10:03:36.769Z,54.39
2022-12-01T10:06:46.266Z,54.39
2022-12-01T10:10:03.874Z,53.78
2022-12-01T10:13:21.474Z,52.62
2022-12-01T10:16:31.922Z,50.88
2022-12-01T10:19:58.273Z,51.29
2022-12-01T10:23:15.778Z,49.36
2022-12-01T10:26:32.184Z,49.68
2022-12-01T10:29:51.184Z,49.94
2022-12-01T10:33:10.554Z,49.58
2022-12-01T10:36:15.195Z,49.91
2022-12-01T10:39:32.570Z,50.82
2022-12-01T10:42:55.892Z,50.84
2022-12-01T10:46:07.293Z,51.34
2022-12-01T10:49:14.640Z,51.63
2022-12-01T10:52:39.380Z,51.61
2022-12-01T10:55:47.900Z,50.91
2022-12-01T10:58:59.476Z,51.98
2022-12-01T11:02:06.353Z,52.55
2022-12-01T11:05:25.895Z,52.44
2022-12-01T11:08:36.543Z,52.90
2022-12-01T11:11:42.084Z,53.30
2022-12-01T11:14:54.449Z,52.63
2022-12-01T11:18:09.559Z,51.88
2022-12-01T11:21:28.113Z,53.37
2022-12-01T11:24:43.191Z,53.33
2022-12-01T11:27:52.646Z,53.59
2022-12-01T11:31:03.785Z,53.97
2022-12-01T11:34:21.803Z,52.33
2022-12-01T11:37:30.442Z,53.61
2022-12-01T11:40:46.604Z,54.81
2022-12-01T11:44:01.148Z,53.75
2022-12-01T11:47:23.219Z,52.22
2022-12-01T11:50:31.387Z,52.37
2022-12-01T11:53:38.820Z,54.28
2022-12-01T11:56:45.116Z,54.70
2022-12-01T11:59:49.594Z,53.60
2022-12-01T12:03:10.043Z,53.79
2022-12-01T12:06:46.027Z,53.76
2022-12-01T12:09:56.219Z,53.36
2022-12-01T12:13:19.350Z,52.09
2022-12-01T12:16:50.358Z,52.71
2022-12-01T12:20:08.900Z,53.55
2022-12-01T12:23:38.309Z,54.41
2022-12-01T12:27:16.477Z,54.16
2022-12-01T12:30:30.402Z,55.42
2022-12-01T12:33:52.947Z,53.37
2022-12-01T12:37:11.597Z,54.56
2022-12-01T12:40:40.148Z,55.28
2022-12-01T12:44:07.032Z,54.30
2022-12-01T12:47:36.117Z,53.72
2022-12-01T12:51:42.217Z,57.08
2022-12-01T12:54:54.404Z,57.82
2022-12-01T12:58:10.919Z,57.24
2022-12-01T13:01:31.840Z,55.44
2022-12-01T13:04:41.955Z,55.02
2022-12-01T13:08:04.622Z,53.29
2022-12-01T13:11:22.630Z,54.14
2022-12-01T13:14:49.872Z,53.98
2022-12-01T13:18:14.496Z,54.19
2022-12-01T13:21:22.505Z,54.59
2022-12-01T13:24:32.254Z,53.97
2022-12-01T13:27:41.819Z,53.97
2022-12-01T13:31:01.128Z,53.76
2022-12-01T13:34:07.108Z,53.93
2022-12-01T13:37:12.129Z,55.27
2022-12-01T13:40:29.433Z,54.37
2022-12-01T13:43:33.800Z,53.78
2022-12-01T13:46:45.268Z,53.60
2022-12-01T13:49:52.559Z,53.96
2022-12-01T13:53:13.120Z,54.55
2022-12-01T13:56:17.465Z,54.62
2022-12-01T13:59:59.859Z,53.51
2022-12-01T14:03:13.744Z,53.82
2022-12-01T14:06:30.474Z,53.71
2022-12-01T14:09:38.204Z,54.96
2022-12-01T14:12:47.288Z,54.65
2022-12-01T14:15:58.797Z,54.21
2022-12-01T14:19:03.796Z,54.66
2022-12-01T14:22:29.082Z,54.35
2022-12-01T14:25:33.851Z,54.62
2022-12-01T14:28:56.329Z,54.50
2022-12-01T14:32:20.250Z,55.75
2022-12-01T14:35:25.245Z,56.18
2022-12-01T14:38:30.281Z,56.28
2022-12-01T14:41:40.710Z,56.66
2022-12-01T14:44:56.378Z,55.99
2022-12-01T14:48:14.575Z,56.37
2022-12-01T14:51:49.686Z,56.26
2022-12-01T14:55:02.617Z,57.08
2022-12-01T14:58:13.112Z,58.05
2022-12-01T15:01:17.777Z,59.64
2022-12-01T15:04:22.252Z,58.31
2022-12-01T15:07:27.373Z,56.68
2022-12-01T15:10:37.825Z,56.77
2022-12-01T15:13:52.411Z,56.44
2022-12-01T15:16:56.913Z,55.34
2022-12-01T15:20:02.130Z,54.76
2022-12-01T15:23:14.836Z,54.49
2022-12-01T15:26:22.272Z,55.74
2022-12-01T15:29:30.781Z,56.36
2022-12-01T15:32:43.513Z,56.71
2022-12-01T15:35:48.431Z,55.96
2022-12-01T15:38:53.923Z,57.08
2022-12-01T15:41:58.855Z,58.22
2022-12-01T15:45:18.555Z,56.84
2022-12-01T15:48:35.202Z,56.96
2022-12-01T15:51:39.677Z,57.10
2022-12-01T15:54:49.771Z,57.37
2022-12-01T15:57:54.701Z,57.72
2022-12-01T16:01:03.110Z,57.94
2022-12-01T16:04:29.120Z,58.71
2022-12-01T16:08:11.530Z,56.31
2022-12-01T16:11:13.606Z,56.17
2022-12-01T16:14:23.665Z,56.79
2022-12-01T16:17:30.338Z,57.44
2022-12-01T16:20:45.606Z,59.16
2022-12-01T16:23:49.667Z,57.42
2022-12-01T16:27:06.992Z,57.47
2022-12-01T16:30:23.877Z,58.18
2022-12-01T16:33:29.905Z,57.26
2022-12-01T16:36:34.219Z,57.36
2022-12-01T16:39:38.533Z,57.51
2022-12-01T16:42:43.078Z,56.66
2022-12-01T16:45:53.579Z,57.34
2022-12-01T16:48:57.985Z,57.19
2022-12-01T16:52:22.081Z,57.90
2022-12-01T16:55:42.749Z,57.50
2022-12-01T16:58:48.775Z,57.77
2022-12-01T17:01:53.181Z,57.33
2022-12-01T17:05:34.242Z,57.60
2022-12-01T17:08:57.221Z,57.78
2022-12-01T17:12:01.535Z,59.56
2022-12-01T17:15:07.899Z,59.59
2022-12-01T17:18:12.973Z,59.08
2022-12-01T17:21:17.551Z,58.71
2022-12-01T17:24:23.027Z,57.28
2022-12-01T17:27:28.695Z,59.43
2022-12-01T17:30:32.960Z,61.19
2022-12-01T17:33:39.512Z,59.83
2022-12-01T17:36:44.217Z,59.04
2022-12-01T17:39:48.067Z,58.08
2022-12-01T17:42:52.901Z,57.31
2022-12-01T17:45:57.468Z,57.54
2022-12-01T17:49:01.943Z,58.83
2022-12-01T17:52:07.606Z,59.12
2022-12-01T17:55:12.616Z,56.00
2022-12-01T17:58:19.082Z,56.15
2022-12-01T18:01:28.612Z,57.33
2022-12-01T18:04:35.268Z,56.46
2022-12-01T18:07:40.141Z,57.88
2022-12-01T18:10:43.992Z,59.73
2022-12-01T18:13:50.983Z,59.41
2022-12-01T18:16:55.522Z,57.58
2022-12-01T18:20:00.107Z,58.28
2022-12-01T18:23:04.168Z,58.28
2022-12-01T18:26:15.792Z,57.99
2022-12-01T18:29:26.797Z,58.80
2022-12-01T18:32:31.331Z,57.89
2022-12-01T18:35:35.486Z,58.39
2022-12-01T18:38:40.954Z,57.46
2022-12-01T18:41:45.607Z,57.75
2022-12-01T18:44:50.179Z,57.80
2022-12-01T18:47:54.615Z,59.08
2022-12-01T18:51:07.376Z,58.46
2022-12-01T18:54:14.859Z,57.37
2022-12-01T18:57:19.950Z,57.44
2022-12-01T19:00:24.397Z,57.30
2022-12-01T19:03:35.062Z,61.28
2022-12-01T19:06:41.981Z,59.64
2022-12-01T19:09:48.365Z,57.63
2022-12-01T19:12:52.865Z,56.95
2022-12-01T19:15:57.560Z,57.38
2022-12-01T19:19:02.812Z,57.93
2022-12-01T19:22:07.423Z,58.49
2022-12-01T19:25:12.433Z,59.22
2022-12-01T19:28:16.928Z,60.03
2022-12-01T19:31:25.661Z,59.87
2022-12-01T19:34:30.108Z,58.45
2022-12-01T19:37:34.391Z,57.63
2022-12-01T19:40:39.717Z,58.11
2022-12-01T19:43:44.475Z,58.18
2022-12-01T19:46:50.710Z,57.88
2022-12-01T19:49:55.400Z,56.96
2022-12-01T19:52:59.463Z,56.24
2022-12-01T19:56:05.765Z,57.14
2022-12-01T19:59:12.254Z,57.25
2022-12-01T20:02:16.653Z,57.70
2022-12-01T20:05:20.827Z,59.05
2022-12-01T20:08:25.483Z,59.32
2022-12-01T20:11:36.362Z,61.04
2022-12-01T20:14:40.693Z,61.24
2022-12-01T20:17:45.586Z,59.73
2022-12-01T20:20:50.198Z,59.16
2022-12-01T20:24:01.578Z,58.98
2022-12-01T20:27:05.845Z,58.40
2022-12-01T20:30:11.096Z,57.72
2022-12-01T20:33:15.592Z,59.08
2022-12-01T20:36:19.895Z,58.87
2022-12-01T20:39:24.747Z,59.50
2022-12-01T20:42:29.114Z,59.70
2022-12-01T20:45:33.341Z,60.51
2022-12-01T20:48:38.055Z,59.97
2022-12-01T20:51:42.749Z,60.37
2022-12-01T20:54:47.257Z,60.45
2022-12-01T20:57:52.408Z,59.89
2022-12-01T21:00:56.780Z,59.10
2022-12-01T21:04:01.121Z,58.68
2022-12-01T21:07:05.290Z,58.36
2022-12-01T21:10:13.469Z,59.72
2022-12-01T21:13:44.240Z,59.88
2022-12-01T21:16:50.171Z,59.56
2022-12-01T21:20:22.204Z,59.26
2022-12-01T21:23:28.296Z,58.56
2022-12-01T21:26:32.825Z,59.55
2022-12-01T21:29:42.658Z,58.42
2022-12-01T21:32:48.831Z,59.08
2022-12-01T21:35:53.524Z,59.43
2022-12-01T21:39:12.333Z,58.35
2022-12-01T21:42:26.600Z,59.26
2022-12-01T21:45:35.967Z,59.86
2022-12-01T21:48:40.218Z,59.76
2022-12-01T21:51:46.033Z,59.51
2022-12-01T21:54:51.061Z,59.50
2022-12-01T21:57:56.028Z,59.87
2022-12-01T22:01:00.970Z,59.10
2022-12-01T22:04:22.527Z,57.94
2022-12-01T22:07:28.701Z,58.77
2022-12-01T22:10:51.856Z,59.64
2022-12-01T22:14:16.288Z,60.36
2022-12-01T22:17:22.374Z,60.00
2022-12-01T22:20:27.018Z,59.12
2022-12-01T22:23:37.470Z,59.69
2022-12-01T22:26:50.822Z,61.50
2022-12-01T22:30:00.348Z,60.90
2022-12-01T22:33:15.209Z,60.67
2022-12-01T22:36:29.068Z,59.79
2022-12-01T22:39:34.907Z,58.32
2022-12-01T22:42:39.190Z,59.22
2022-12-01T22:45:50.388Z,59.63
2022-12-01T22:48:58.199Z,59.50
2022-12-01T22:52:08.241Z,60.14
2022-12-01T22:55:18.999Z,59.93
2022-12-01T22:58:31.656Z,59.41
2022-12-01T23:01:47.969Z,59.50
2022-12-01T23:05:00.679Z,60.28
2022-12-01T23:08:13.932Z,59.85
2022-12-01T23:11:18.790Z,59.32
2022-12-01T23:14:24.659Z,61.50
2022-12-01T23:17:32.345Z,61.92
2022-12-01T23:20:37.650Z,61.91
2022-12-01T23:23:42.137Z,61.19
2022-12-01T23:26:48.212Z,61.13
2022-12-01T23:29:52.702Z,60.87
2022-12-01T23:33:24.583Z,62.68
2022-12-01T23:36:30.783Z,61.77
2022-12-01T23:39:37.178Z,60.13
2022-12-01T23:42:41.806Z,60.82
2022-12-01T23:45:47.254Z,60.94
2022-12-01T23:49:14.006Z,60.98
2022-12-01T23:52:22.231Z,60.75
2022-12-01T23:55:32.334Z,59.48
2022-12-01T23:58:36.706Z,57.86
